sensor_id;sensor_type;location;lat;lon;timestamp;P1;durP1;ratioP1;P2;durP2;ratioP2
25213;SDS011;13160;51.834;4.706;2022-10-14T00:01:03;85.13;;;67.95;;
25213;SDS011;13160;51.834;4.706;2022-10-14T00:03:37;86.93;;;66.13;;
25213;SDS011;13160;51.834;4.706;2022-10-14T00:06:20;83.55;;;66.53;;
25213;SDS011;13160;51.834;4.706;2022-10-14T00:08:58;95.43;;;69.15;;
25213;SDS011;13160;51.834;4.706;2022-10-14T00:11:32;91.95;;;67.78;;
25213;SDS011;13160;51.834;4.706;2022-10-14T00:14:07;97.20;;;70.10;;
25213;SDS011;13160;51.834;4.706;2022-10-14T00:16:48;93.75;;;69.53;;
25213;SDS011;13160;51.834;4.706;2022-10-14T00:19:25;92.25;;;66.60;;
25213;SDS011;13160;51.834;4.706;2022-10-14T00:21:56;98.03;;;68.75;;
25213;SDS011;13160;51.834;4.706;2022-10-14T00:24:33;95.80;;;69.35;;
25213;SDS011;13160;51.834;4.706;2022-10-14T00:27:14;105.50;;;69.20;;
25213;SDS011;13160;51.834;4.706;2022-10-14T00:29:50;105.68;;;70.63;;
25213;SDS011;13160;51.834;4.706;2022-10-14T00:35:09;113.65;;;72.15;;
25213;SDS011;13160;51.834;4.706;2022-10-14T00:37:42;115.82;;;72.53;;
25213;SDS011;13160;51.834;4.706;2022-10-14T00:40:11;116.55;;;73.07;;
25213;SDS011;13160;51.834;4.706;2022-10-14T00:42:44;110.40;;;72.13;;
25213;SDS011;13160;51.834;4.706;2022-10-14T00:45:18;114.13;;;73.15;;
25213;SDS011;13160;51.834;4.706;2022-10-14T00:47:51;122.43;;;75.00;;
25213;SDS011;13160;51.834;4.706;2022-10-14T00:50:22;126.68;;;74.90;;
25213;SDS011;13160;51.834;4.706;2022-10-14T00:52:54;132.73;;;76.38;;
25213;SDS011;13160;51.834;4.706;2022-10-14T00:55:26;124.35;;;73.43;;
25213;SDS011;13160;51.834;4.706;2022-10-14T00:58:10;135.48;;;73.68;;
25213;SDS011;13160;51.834;4.706;2022-10-14T01:00:40;135.38;;;74.85;;
25213;SDS011;13160;51.834;4.706;2022-10-14T01:03:16;132.13;;;73.35;;
25213;SDS011;13160;51.834;4.706;2022-10-14T01:05:52;135.23;;;75.32;;
25213;SDS011;13160;51.834;4.706;2022-10-14T01:08:29;131.02;;;75.60;;
25213;SDS011;13160;51.834;4.706;2022-10-14T01:11:06;143.77;;;77.38;;
25213;SDS011;13160;51.834;4.706;2022-10-14T01:13:54;145.75;;;78.93;;
25213;SDS011;13160;51.834;4.706;2022-10-14T01:16:34;135.40;;;77.60;;
25213;SDS011;13160;51.834;4.706;2022-10-14T01:22:25;150.65;;;78.10;;
25213;SDS011;13160;51.834;4.706;2022-10-14T01:25:04;143.77;;;78.18;;
25213;SDS011;13160;51.834;4.706;2022-10-14T01:27:50;144.52;;;77.75;;
25213;SDS011;13160;51.834;4.706;2022-10-14T01:30:33;139.85;;;77.57;;
25213;SDS011;13160;51.834;4.706;2022-10-14T01:33:13;152.10;;;80.80;;
25213;SDS011;13160;51.834;4.706;2022-10-14T01:35:50;149.88;;;80.45;;
25213;SDS011;13160;51.834;4.706;2022-10-14T01:38:30;153.25;;;79.68;;
25213;SDS011;13160;51.834;4.706;2022-10-14T01:41:05;151.63;;;80.30;;
25213;SDS011;13160;51.834;4.706;2022-10-14T01:43:42;150.45;;;79.75;;
25213;SDS011;13160;51.834;4.706;2022-10-14T01:46:20;146.05;;;77.43;;
25213;SDS011;13160;51.834;4.706;2022-10-14T01:48:54;150.20;;;80.13;;
25213;SDS011;13160;51.834;4.706;2022-10-14T01:51:29;151.60;;;77.97;;
25213;SDS011;13160;51.834;4.706;2022-10-14T01:54:05;147.77;;;79.82;;
25213;SDS011;13160;51.834;4.706;2022-10-14T01:56:49;148.57;;;79.55;;
25213;SDS011;13160;51.834;4.706;2022-10-14T01:59:20;141.00;;;75.40;;
25213;SDS011;13160;51.834;4.706;2022-10-14T02:01:52;141.05;;;77.40;;
25213;SDS011;13160;51.834;4.706;2022-10-14T02:04:22;152.77;;;78.80;;
25213;SDS011;13160;51.834;4.706;2022-10-14T02:06:53;153.20;;;77.00;;
25213;SDS011;13160;51.834;4.706;2022-10-14T02:09:39;151.95;;;79.10;;
25213;SDS011;13160;51.834;4.706;2022-10-14T02:12:22;151.93;;;77.57;;
25213;SDS011;13160;51.834;4.706;2022-10-14T02:15:10;147.85;;;76.30;;
25213;SDS011;13160;51.834;4.706;2022-10-14T02:17:52;144.25;;;76.10;;
25213;SDS011;13160;51.834;4.706;2022-10-14T02:20:26;146.20;;;75.78;;
25213;SDS011;13160;51.834;4.706;2022-10-14T02:23:05;141.38;;;74.20;;
25213;SDS011;13160;51.834;4.706;2022-10-14T02:25:40;146.80;;;73.53;;
25213;SDS011;13160;51.834;4.706;2022-10-14T02:28:13;137.43;;;70.70;;
25213;SDS011;13160;51.834;4.706;2022-10-14T02:30:48;136.73;;;70.05;;
25213;SDS011;13160;51.834;4.706;2022-10-14T02:33:23;138.82;;;72.45;;
25213;SDS011;13160;51.834;4.706;2022-10-14T02:35:58;143.15;;;73.47;;
25213;SDS011;13160;51.834;4.706;2022-10-14T02:38:28;143.75;;;73.05;;
25213;SDS011;13160;51.834;4.706;2022-10-14T02:40:58;140.65;;;71.97;;
25213;SDS011;13160;51.834;4.706;2022-10-14T02:43:31;132.60;;;67.88;;
25213;SDS011;13160;51.834;4.706;2022-10-14T02:46:00;130.15;;;69.68;;
25213;SDS011;13160;51.834;4.706;2022-10-14T02:48:35;131.05;;;68.63;;
25213;SDS011;13160;51.834;4.706;2022-10-14T02:51:05;137.52;;;69.43;;
25213;SDS011;13160;51.834;4.706;2022-10-14T02:53:33;138.25;;;69.63;;
25213;SDS011;13160;51.834;4.706;2022-10-14T02:56:07;139.80;;;70.63;;
25213;SDS011;13160;51.834;4.706;2022-10-14T02:58:38;136.75;;;69.68;;
25213;SDS011;13160;51.834;4.706;2022-10-14T03:01:11;138.90;;;68.40;;
25213;SDS011;13160;51.834;4.706;2022-10-14T03:03:42;141.82;;;69.10;;
25213;SDS011;13160;51.834;4.706;2022-10-14T03:06:11;136.93;;;68.60;;
25213;SDS011;13160;51.834;4.706;2022-10-14T03:08:42;129.40;;;65.85;;
25213;SDS011;13160;51.834;4.706;2022-10-14T03:11:12;137.82;;;69.32;;
25213;SDS011;13160;51.834;4.706;2022-10-14T03:13:43;138.32;;;68.93;;
25213;SDS011;13160;51.834;4.706;2022-10-14T03:16:11;137.05;;;67.43;;
25213;SDS011;13160;51.834;4.706;2022-10-14T03:18:43;143.18;;;67.50;;
25213;SDS011;13160;51.834;4.706;2022-10-14T03:21:13;139.55;;;66.32;;
25213;SDS011;13160;51.834;4.706;2022-10-14T03:23:42;143.10;;;69.07;;
25213;SDS011;13160;51.834;4.706;2022-10-14T03:26:11;143.68;;;67.13;;
25213;SDS011;13160;51.834;4.706;2022-10-14T03:28:41;140.00;;;66.00;;
25213;SDS011;13160;51.834;4.706;2022-10-14T03:31:10;139.05;;;65.78;;
25213;SDS011;13160;51.834;4.706;2022-10-14T03:33:41;148.60;;;66.82;;
25213;SDS011;13160;51.834;4.706;2022-10-14T03:36:19;146.50;;;66.70;;
25213;SDS011;13160;51.834;4.706;2022-10-14T03:38:51;143.05;;;67.25;;
25213;SDS011;13160;51.834;4.706;2022-10-14T03:41:21;141.23;;;65.85;;
25213;SDS011;13160;51.834;4.706;2022-10-14T03:43:49;146.10;;;67.65;;
25213;SDS011;13160;51.834;4.706;2022-10-14T03:46:18;138.30;;;66.05;;
25213;SDS011;13160;51.834;4.706;2022-10-14T03:48:57;142.32;;;64.43;;
25213;SDS011;13160;51.834;4.706;2022-10-14T03:51:26;130.30;;;62.92;;
25213;SDS011;13160;51.834;4.706;2022-10-14T03:53:54;132.40;;;63.85;;
25213;SDS011;13160;51.834;4.706;2022-10-14T03:56:22;130.82;;;63.88;;
25213;SDS011;13160;51.834;4.706;2022-10-14T03:58:51;130.70;;;62.60;;
25213;SDS011;13160;51.834;4.706;2022-10-14T04:01:19;127.22;;;60.63;;
25213;SDS011;13160;51.834;4.706;2022-10-14T04:03:48;127.60;;;60.03;;
25213;SDS011;13160;51.834;4.706;2022-10-14T04:06:18;126.07;;;59.42;;
25213;SDS011;13160;51.834;4.706;2022-10-14T04:08:47;120.47;;;58.00;;
25213;SDS011;13160;51.834;4.706;2022-10-14T04:11:15;114.53;;;57.50;;
25213;SDS011;13160;51.834;4.706;2022-10-14T04:13:44;113.97;;;55.88;;
25213;SDS011;13160;51.834;4.706;2022-10-14T04:16:12;119.93;;;57.47;;
25213;SDS011;13160;51.834;4.706;2022-10-14T04:18:40;113.80;;;56.25;;
25213;SDS011;13160;51.834;4.706;2022-10-14T04:21:10;111.20;;;55.08;;
25213;SDS011;13160;51.834;4.706;2022-10-14T04:23:40;113.57;;;56.58;;
25213;SDS011;13160;51.834;4.706;2022-10-14T04:26:08;116.88;;;57.38;;
25213;SDS011;13160;51.834;4.706;2022-10-14T04:28:36;110.03;;;55.42;;
25213;SDS011;13160;51.834;4.706;2022-10-14T04:31:05;107.63;;;54.50;;
25213;SDS011;13160;51.834;4.706;2022-10-14T04:33:33;111.35;;;55.28;;
25213;SDS011;13160;51.834;4.706;2022-10-14T04:36:03;111.80;;;54.08;;
25213;SDS011;13160;51.834;4.706;2022-10-14T04:38:33;112.97;;;53.85;;
25213;SDS011;13160;51.834;4.706;2022-10-14T04:41:02;116.65;;;54.05;;
25213;SDS011;13160;51.834;4.706;2022-10-14T04:43:30;106.80;;;50.88;;
25213;SDS011;13160;51.834;4.706;2022-10-14T04:45:59;98.47;;;50.45;;
25213;SDS011;13160;51.834;4.706;2022-10-14T04:48:27;99.97;;;51.10;;
25213;SDS011;13160;51.834;4.706;2022-10-14T04:50:55;103.40;;;51.60;;
25213;SDS011;13160;51.834;4.706;2022-10-14T04:53:23;98.53;;;50.28;;
25213;SDS011;13160;51.834;4.706;2022-10-14T04:55:51;99.63;;;50.33;;
25213;SDS011;13160;51.834;4.706;2022-10-14T04:58:24;103.95;;;51.50;;
25213;SDS011;13160;51.834;4.706;2022-10-14T05:00:59;92.72;;;49.50;;
25213;SDS011;13160;51.834;4.706;2022-10-14T05:03:34;92.18;;;48.90;;
25213;SDS011;13160;51.834;4.706;2022-10-14T05:06:08;88.63;;;48.20;;
25213;SDS011;13160;51.834;4.706;2022-10-14T05:08:40;90.28;;;46.92;;
25213;SDS011;13160;51.834;4.706;2022-10-14T05:11:10;92.95;;;47.80;;
25213;SDS011;13160;51.834;4.706;2022-10-14T05:13:43;86.05;;;45.78;;
25213;SDS011;13160;51.834;4.706;2022-10-14T05:16:14;87.60;;;46.72;;
25213;SDS011;13160;51.834;4.706;2022-10-14T05:18:45;85.20;;;45.33;;
25213;SDS011;13160;51.834;4.706;2022-10-14T05:21:16;83.45;;;44.45;;
25213;SDS011;13160;51.834;4.706;2022-10-14T05:23:46;83.93;;;44.30;;
25213;SDS011;13160;51.834;4.706;2022-10-14T05:26:16;81.82;;;43.17;;
25213;SDS011;13160;51.834;4.706;2022-10-14T05:28:51;82.18;;;43.38;;
25213;SDS011;13160;51.834;4.706;2022-10-14T05:31:26;77.07;;;42.15;;
25213;SDS011;13160;51.834;4.706;2022-10-14T05:34:09;75.45;;;41.83;;
25213;SDS011;13160;51.834;4.706;2022-10-14T05:36:38;72.97;;;39.47;;
25213;SDS011;13160;51.834;4.706;2022-10-14T05:39:10;72.95;;;39.00;;
25213;SDS011;13160;51.834;4.706;2022-10-14T05:41:40;66.47;;;36.60;;
25213;SDS011;13160;51.834;4.706;2022-10-14T05:44:10;67.15;;;37.63;;
25213;SDS011;13160;51.834;4.706;2022-10-14T05:46:39;64.28;;;35.13;;
25213;SDS011;13160;51.834;4.706;2022-10-14T05:49:09;65.78;;;36.05;;
25213;SDS011;13160;51.834;4.706;2022-10-14T05:51:38;63.25;;;35.22;;
25213;SDS011;13160;51.834;4.706;2022-10-14T05:54:07;61.60;;;34.85;;
25213;SDS011;13160;51.834;4.706;2022-10-14T05:56:37;60.00;;;34.10;;
25213;SDS011;13160;51.834;4.706;2022-10-14T05:59:20;66.13;;;35.63;;
25213;SDS011;13160;51.834;4.706;2022-10-14T06:01:52;63.92;;;35.10;;
25213;SDS011;13160;51.834;4.706;2022-10-14T06:04:22;64.13;;;35.85;;
25213;SDS011;13160;51.834;4.706;2022-10-14T06:06:51;65.18;;;36.95;;
25213;SDS011;13160;51.834;4.706;2022-10-14T06:09:20;73.93;;;37.15;;
25213;SDS011;13160;51.834;4.706;2022-10-14T06:11:51;73.88;;;39.30;;
25213;SDS011;13160;51.834;4.706;2022-10-14T06:14:25;81.97;;;41.38;;
25213;SDS011;13160;51.834;4.706;2022-10-14T06:16:54;77.65;;;41.97;;
25213;SDS011;13160;51.834;4.706;2022-10-14T06:19:25;91.85;;;44.15;;
25213;SDS011;13160;51.834;4.706;2022-10-14T06:21:54;88.78;;;44.70;;
25213;SDS011;13160;51.834;4.706;2022-10-14T06:24:22;90.72;;;45.30;;
25213;SDS011;13160;51.834;4.706;2022-10-14T06:26:51;101.82;;;49.42;;
25213;SDS011;13160;51.834;4.706;2022-10-14T06:29:19;108.30;;;51.15;;
25213;SDS011;13160;51.834;4.706;2022-10-14T06:31:53;116.38;;;52.90;;
25213;SDS011;13160;51.834;4.706;2022-10-14T06:34:22;116.05;;;52.53;;
25213;SDS011;13160;51.834;4.706;2022-10-14T06:36:52;118.47;;;54.15;;
25213;SDS011;13160;51.834;4.706;2022-10-14T06:39:27;130.23;;;55.08;;
25213;SDS011;13160;51.834;4.706;2022-10-14T06:41:56;126.60;;;54.60;;
25213;SDS011;13160;51.834;4.706;2022-10-14T06:44:25;125.40;;;55.22;;
25213;SDS011;13160;51.834;4.706;2022-10-14T06:46:55;132.05;;;56.90;;
25213;SDS011;13160;51.834;4.706;2022-10-14T06:49:24;130.32;;;56.70;;
25213;SDS011;13160;51.834;4.706;2022-10-14T06:51:53;132.50;;;56.50;;
25213;SDS011;13160;51.834;4.706;2022-10-14T06:54:22;144.05;;;58.20;;
25213;SDS011;13160;51.834;4.706;2022-10-14T06:56:52;138.68;;;58.22;;
25213;SDS011;13160;51.834;4.706;2022-10-14T06:59:21;131.57;;;56.47;;
25213;SDS011;13160;51.834;4.706;2022-10-14T07:01:51;135.15;;;56.42;;
25213;SDS011;13160;51.834;4.706;2022-10-14T07:04:21;125.60;;;54.85;;
25213;SDS011;13160;51.834;4.706;2022-10-14T07:06:52;129.98;;;55.35;;
25213;SDS011;13160;51.834;4.706;2022-10-14T07:09:27;135.68;;;55.95;;
25213;SDS011;13160;51.834;4.706;2022-10-14T07:11:57;127.47;;;55.58;;
25213;SDS011;13160;51.834;4.706;2022-10-14T07:14:28;120.35;;;54.13;;
25213;SDS011;13160;51.834;4.706;2022-10-14T07:16:59;115.97;;;52.00;;
25213;SDS011;13160;51.834;4.706;2022-10-14T07:19:30;114.13;;;53.15;;
25213;SDS011;13160;51.834;4.706;2022-10-14T07:22:04;119.50;;;52.35;;
25213;SDS011;13160;51.834;4.706;2022-10-14T07:24:47;114.07;;;52.22;;
25213;SDS011;13160;51.834;4.706;2022-10-14T07:27:20;107.93;;;49.90;;
25213;SDS011;13160;51.834;4.706;2022-10-14T07:29:52;114.25;;;50.25;;
25213;SDS011;13160;51.834;4.706;2022-10-14T07:32:34;104.30;;;49.40;;
25213;SDS011;13160;51.834;4.706;2022-10-14T07:35:08;102.65;;;48.95;;
25213;SDS011;13160;51.834;4.706;2022-10-14T07:37:42;98.70;;;47.78;;
25213;SDS011;13160;51.834;4.706;2022-10-14T07:40:13;98.45;;;47.35;;
25213;SDS011;13160;51.834;4.706;2022-10-14T07:42:55;99.47;;;48.15;;
25213;SDS011;13160;51.834;4.706;2022-10-14T07:45:28;92.47;;;46.45;;
25213;SDS011;13160;51.834;4.706;2022-10-14T07:48:03;97.20;;;47.35;;
25213;SDS011;13160;51.834;4.706;2022-10-14T07:51:16;90.30;;;45.30;;
25213;SDS011;13160;51.834;4.706;2022-10-14T07:53:46;94.28;;;45.20;;
25213;SDS011;13160;51.834;4.706;2022-10-14T07:56:20;91.15;;;45.80;;
25213;SDS011;13160;51.834;4.706;2022-10-14T07:58:51;93.90;;;47.20;;
25213;SDS011;13160;51.834;4.706;2022-10-14T08:01:24;87.30;;;44.65;;
25213;SDS011;13160;51.834;4.706;2022-10-14T08:03:58;84.80;;;45.33;;
25213;SDS011;13160;51.834;4.706;2022-10-14T08:06:32;86.20;;;45.20;;
25213;SDS011;13160;51.834;4.706;2022-10-14T08:09:05;82.25;;;43.67;;
25213;SDS011;13160;51.834;4.706;2022-10-14T08:11:42;82.38;;;43.95;;
25213;SDS011;13160;51.834;4.706;2022-10-14T08:14:22;88.03;;;44.80;;
25213;SDS011;13160;51.834;4.706;2022-10-14T08:16:57;83.47;;;44.30;;
25213;SDS011;13160;51.834;4.706;2022-10-14T08:19:35;78.57;;;42.33;;
25213;SDS011;13160;51.834;4.706;2022-10-14T08:22:09;72.90;;;40.58;;
25213;SDS011;13160;51.834;4.706;2022-10-14T08:25:04;71.70;;;41.05;;
25213;SDS011;13160;51.834;4.706;2022-10-14T08:27:53;72.97;;;39.20;;
25213;SDS011;13160;51.834;4.706;2022-10-14T08:30:36;70.78;;;39.97;;
25213;SDS011;13160;51.834;4.706;2022-10-14T08:33:16;66.05;;;38.67;;
25213;SDS011;13160;51.834;4.706;2022-10-14T08:36:00;67.65;;;39.30;;
25213;SDS011;13160;51.834;4.706;2022-10-14T08:42:12;62.13;;;37.10;;
25213;SDS011;13160;51.834;4.706;2022-10-14T08:45:28;62.42;;;37.60;;
25213;SDS011;13160;51.834;4.706;2022-10-14T08:48:10;56.47;;;35.42;;
25213;SDS011;13160;51.834;4.706;2022-10-14T08:50:52;55.75;;;35.05;;
25213;SDS011;13160;51.834;4.706;2022-10-14T08:53:49;51.65;;;32.03;;
25213;SDS011;13160;51.834;4.706;2022-10-14T08:56:42;49.80;;;31.33;;
25213;SDS011;13160;51.834;4.706;2022-10-14T08:59:25;48.65;;;30.42;;
25213;SDS011;13160;51.834;4.706;2022-10-14T09:01:59;48.80;;;31.02;;
25213;SDS011;13160;51.834;4.706;2022-10-14T09:04:55;44.53;;;29.30;;
25213;SDS011;13160;51.834;4.706;2022-10-14T09:07:33;45.35;;;28.98;;
25213;SDS011;13160;51.834;4.706;2022-10-14T09:10:10;41.20;;;28.25;;
25213;SDS011;13160;51.834;4.706;2022-10-14T09:12:54;40.60;;;27.10;;
25213;SDS011;13160;51.834;4.706;2022-10-14T09:15:33;34.60;;;24.92;;
25213;SDS011;13160;51.834;4.706;2022-10-14T09:21:10;34.50;;;23.55;;
25213;SDS011;13160;51.834;4.706;2022-10-14T09:24:12;33.42;;;23.70;;
25213;SDS011;13160;51.834;4.706;2022-10-14T09:26:45;31.98;;;22.30;;
25213;SDS011;13160;51.834;4.706;2022-10-14T09:29:22;30.55;;;21.33;;
25213;SDS011;13160;51.834;4.706;2022-10-14T09:31:55;27.95;;;19.48;;
25213;SDS011;13160;51.834;4.706;2022-10-14T09:34:31;29.17;;;19.65;;
25213;SDS011;13160;51.834;4.706;2022-10-14T09:37:14;28.35;;;18.77;;
25213;SDS011;13160;51.834;4.706;2022-10-14T09:39:55;26.98;;;19.17;;
25213;SDS011;13160;51.834;4.706;2022-10-14T09:42:38;25.52;;;18.70;;
25213;SDS011;13160;51.834;4.706;2022-10-14T09:45:20;27.52;;;19.55;;
25213;SDS011;13160;51.834;4.706;2022-10-14T09:47:54;25.88;;;19.23;;
25213;SDS011;13160;51.834;4.706;2022-10-14T09:50:30;26.15;;;19.83;;
25213;SDS011;13160;51.834;4.706;2022-10-14T09:53:06;26.67;;;20.85;;
25213;SDS011;13160;51.834;4.706;2022-10-14T09:55:45;28.02;;;20.63;;
25213;SDS011;13160;51.834;4.706;2022-10-14T09:58:26;25.33;;;20.35;;
25213;SDS011;13160;51.834;4.706;2022-10-14T10:01:02;28.42;;;21.48;;
25213;SDS011;13160;51.834;4.706;2022-10-14T10:03:32;26.27;;;21.02;;
25213;SDS011;13160;51.834;4.706;2022-10-14T10:06:17;25.75;;;21.67;;
25213;SDS011;13160;51.834;4.706;2022-10-14T10:08:54;25.83;;;22.17;;
25213;SDS011;13160;51.834;4.706;2022-10-14T10:11:40;25.45;;;20.58;;
25213;SDS011;13160;51.834;4.706;2022-10-14T10:14:15;25.30;;;21.95;;
25213;SDS011;13160;51.834;4.706;2022-10-14T10:17:11;25.17;;;20.95;;
25213;SDS011;13160;51.834;4.706;2022-10-14T10:19:45;23.00;;;20.27;;
25213;SDS011;13160;51.834;4.706;2022-10-14T10:22:21;21.75;;;19.27;;
25213;SDS011;13160;51.834;4.706;2022-10-14T10:27:52;20.48;;;17.45;;
25213;SDS011;13160;51.834;4.706;2022-10-14T10:30:56;20.23;;;17.77;;
25213;SDS011;13160;51.834;4.706;2022-10-14T10:33:36;20.08;;;17.80;;
25213;SDS011;13160;51.834;4.706;2022-10-14T10:36:17;19.83;;;17.80;;
25213;SDS011;13160;51.834;4.706;2022-10-14T10:38:56;21.98;;;17.90;;
25213;SDS011;13160;51.834;4.706;2022-10-14T10:41:30;19.42;;;17.52;;
25213;SDS011;13160;51.834;4.706;2022-10-14T10:44:23;19.88;;;17.80;;
25213;SDS011;13160;51.834;4.706;2022-10-14T10:50:05;17.98;;;16.17;;
25213;SDS011;13160;51.834;4.706;2022-10-14T10:53:17;17.15;;;15.50;;
25213;SDS011;13160;51.834;4.706;2022-10-14T10:55:59;16.40;;;14.70;;
25213;SDS011;13160;51.834;4.706;2022-10-14T10:58:47;16.45;;;14.75;;
25213;SDS011;13160;51.834;4.706;2022-10-14T11:01:42;15.88;;;14.27;;
25213;SDS011;13160;51.834;4.706;2022-10-14T11:04:23;15.05;;;13.45;;
25213;SDS011;13160;51.834;4.706;2022-10-14T11:07:03;15.15;;;13.55;;
25213;SDS011;13160;51.834;4.706;2022-10-14T11:10:02;15.63;;;14.02;;
25213;SDS011;13160;51.834;4.706;2022-10-14T11:13:00;12.98;;;11.68;;
25213;SDS011;13160;51.834;4.706;2022-10-14T11:15:37;13.73;;;11.75;;
25213;SDS011;13160;51.834;4.706;2022-10-14T11:18:17;12.35;;;10.85;;
25213;SDS011;13160;51.834;4.706;2022-10-14T11:21:00;11.88;;;10.68;;
25213;SDS011;13160;51.834;4.706;2022-10-14T11:23:44;11.07;;;9.98;;
25213;SDS011;13160;51.834;4.706;2022-10-14T11:26:32;11.23;;;10.02;;
25213;SDS011;13160;51.834;4.706;2022-10-14T11:29:19;12.25;;;10.32;;
25213;SDS011;13160;51.834;4.706;2022-10-14T11:32:15;11.98;;;10.43;;
25213;SDS011;13160;51.834;4.706;2022-10-14T11:34:51;11.93;;;10.15;;
25213;SDS011;13160;51.834;4.706;2022-10-14T11:37:38;13.10;;;10.35;;
25213;SDS011;13160;51.834;4.706;2022-10-14T11:40:22;11.55;;;10.23;;
25213;SDS011;13160;51.834;4.706;2022-10-14T11:43:02;14.18;;;10.93;;
25213;SDS011;13160;51.834;4.706;2022-10-14T11:45:44;13.63;;;10.90;;
25213;SDS011;13160;51.834;4.706;2022-10-14T11:48:21;13.60;;;10.93;;
25213;SDS011;13160;51.834;4.706;2022-10-14T11:51:01;19.38;;;13.00;;
25213;SDS011;13160;51.834;4.706;2022-10-14T11:53:40;19.38;;;13.38;;
25213;SDS011;13160;51.834;4.706;2022-10-14T11:56:27;19.08;;;13.98;;
25213;SDS011;13160;51.834;4.706;2022-10-14T11:59:10;19.75;;;14.95;;
25213;SDS011;13160;51.834;4.706;2022-10-14T12:01:49;21.35;;;15.70;;
25213;SDS011;13160;51.834;4.706;2022-10-14T12:04:22;19.42;;;14.50;;
25213;SDS011;13160;51.834;4.706;2022-10-14T12:06:56;19.10;;;14.60;;
25213;SDS011;13160;51.834;4.706;2022-10-14T12:09:33;20.98;;;14.43;;
25213;SDS011;13160;51.834;4.706;2022-10-14T12:12:08;22.85;;;15.68;;
25213;SDS011;13160;51.834;4.706;2022-10-14T12:14:43;26.08;;;16.98;;
25213;SDS011;13160;51.834;4.706;2022-10-14T12:17:16;26.77;;;17.92;;
25213;SDS011;13160;51.834;4.706;2022-10-14T12:19:50;27.00;;;18.50;;
25213;SDS011;13160;51.834;4.706;2022-10-14T12:22:21;25.77;;;18.48;;
25213;SDS011;13160;51.834;4.706;2022-10-14T12:24:52;24.92;;;19.35;;
25213;SDS011;13160;51.834;4.706;2022-10-14T12:27:25;24.77;;;18.50;;
25213;SDS011;13160;51.834;4.706;2022-10-14T12:29:56;24.83;;;18.27;;
25213;SDS011;13160;51.834;4.706;2022-10-14T12:32:25;23.45;;;18.67;;
25213;SDS011;13160;51.834;4.706;2022-10-14T12:34:56;28.75;;;19.42;;
25213;SDS011;13160;51.834;4.706;2022-10-14T12:37:39;27.52;;;19.85;;
25213;SDS011;13160;51.834;4.706;2022-10-14T12:40:29;26.65;;;20.02;;
25213;SDS011;13160;51.834;4.706;2022-10-14T12:43:02;29.80;;;21.55;;
25213;SDS011;13160;51.834;4.706;2022-10-14T12:45:46;28.80;;;23.48;;
25213;SDS011;13160;51.834;4.706;2022-10-14T12:48:25;30.33;;;22.60;;
25213;SDS011;13160;51.834;4.706;2022-10-14T12:51:06;28.23;;;22.30;;
25213;SDS011;13160;51.834;4.706;2022-10-14T12:53:38;26.42;;;21.90;;
25213;SDS011;13160;51.834;4.706;2022-10-14T12:56:26;27.95;;;21.45;;
25213;SDS011;13160;51.834;4.706;2022-10-14T12:59:03;27.10;;;22.10;;
25213;SDS011;13160;51.834;4.706;2022-10-14T13:01:35;25.23;;;20.50;;
25213;SDS011;13160;51.834;4.706;2022-10-14T13:04:04;26.67;;;20.48;;
25213;SDS011;13160;51.834;4.706;2022-10-14T13:06:52;29.17;;;20.98;;
25213;SDS011;13160;51.834;4.706;2022-10-14T13:10:25;24.40;;;19.58;;
25213;SDS011;13160;51.834;4.706;2022-10-14T13:22:47;21.48;;;17.80;;
25213;SDS011;13160;51.834;4.706;2022-10-14T13:25:16;23.95;;;17.52;;
25213;SDS011;13160;51.834;4.706;2022-10-14T13:28:03;23.55;;;17.63;;
25213;SDS011;13160;51.834;4.706;2022-10-14T13:30:50;20.42;;;17.50;;
25213;SDS011;13160;51.834;4.706;2022-10-14T13:33:29;19.90;;;15.07;;
25213;SDS011;13160;51.834;4.706;2022-10-14T13:36:11;17.40;;;13.20;;
25213;SDS011;13160;51.834;4.706;2022-10-14T14:16:32;12.35;;;5.50;;
25213;SDS011;13160;51.834;4.706;2022-10-14T14:19:24;8.35;;;5.22;;
25213;SDS011;13160;51.834;4.706;2022-10-14T14:22:18;8.40;;;5.18;;
25213;SDS011;13160;51.834;4.706;2022-10-14T14:25:36;7.40;;;4.72;;
25213;SDS011;13160;51.834;4.706;2022-10-14T14:28:55;7.60;;;4.70;;
25213;SDS011;13160;51.834;4.706;2022-10-14T14:31:36;9.45;;;5.40;;
25213;SDS011;13160;51.834;4.706;2022-10-14T14:34:55;8.52;;;5.85;;
25213;SDS011;13160;51.834;4.706;2022-10-14T14:38:04;8.45;;;5.75;;
25213;SDS011;13160;51.834;4.706;2022-10-14T14:41:56;8.38;;;6.05;;
25213;SDS011;13160;51.834;4.706;2022-10-14T14:45:36;9.38;;;6.97;;
25213;SDS011;13160;51.834;4.706;2022-10-14T14:57:05;9.13;;;6.13;;
25213;SDS011;13160;51.834;4.706;2022-10-14T15:00:42;7.97;;;6.25;;
25213;SDS011;13160;51.834;4.706;2022-10-14T15:04:14;10.50;;;6.63;;
25213;SDS011;13160;51.834;4.706;2022-10-14T15:08:02;9.60;;;6.60;;
25213;SDS011;13160;51.834;4.706;2022-10-14T15:11:48;7.65;;;5.75;;
25213;SDS011;13160;51.834;4.706;2022-10-14T15:15:00;8.30;;;5.35;;
25213;SDS011;13160;51.834;4.706;2022-10-14T15:18:44;7.13;;;4.13;;
25213;SDS011;13160;51.834;4.706;2022-10-14T15:22:40;6.47;;;3.88;;
25213;SDS011;13160;51.834;4.706;2022-10-14T15:26:03;7.53;;;4.43;;
25213;SDS011;13160;51.834;4.706;2022-10-14T15:29:30;8.15;;;4.53;;
25213;SDS011;13160;51.834;4.706;2022-10-14T15:33:28;7.28;;;4.28;;
25213;SDS011;13160;51.834;4.706;2022-10-14T15:40:39;10.40;;;6.13;;
25213;SDS011;13160;51.834;4.706;2022-10-14T15:51:35;10.95;;;6.95;;
25213;SDS011;13160;51.834;4.706;2022-10-14T15:54:45;12.07;;;7.60;;
25213;SDS011;13160;51.834;4.706;2022-10-14T15:58:48;10.40;;;7.85;;
25213;SDS011;13160;51.834;4.706;2022-10-14T16:05:15;13.07;;;8.43;;
25213;SDS011;13160;51.834;4.706;2022-10-14T16:25:07;10.88;;;8.73;;
25213;SDS011;13160;51.834;4.706;2022-10-14T16:28:25;10.60;;;8.57;;
25213;SDS011;13160;51.834;4.706;2022-10-14T16:31:24;11.18;;;9.20;;
25213;SDS011;13160;51.834;4.706;2022-10-14T16:34:01;12.40;;;9.07;;
25213;SDS011;13160;51.834;4.706;2022-10-14T16:37:16;12.05;;;9.02;;
25213;SDS011;13160;51.834;4.706;2022-10-14T16:39:49;13.43;;;9.52;;
25213;SDS011;13160;51.834;4.706;2022-10-14T16:43:15;13.18;;;9.23;;
25213;SDS011;13160;51.834;4.706;2022-10-14T16:49:27;10.52;;;8.23;;
25213;SDS011;13160;51.834;4.706;2022-10-14T16:56:27;10.23;;;6.75;;
25213;SDS011;13160;51.834;4.706;2022-10-14T17:28:57;9.80;;;6.72;;
25213;SDS011;13160;51.834;4.706;2022-10-14T17:38:17;9.70;;;6.97;;
25213;SDS011;13160;51.834;4.706;2022-10-14T17:41:43;11.73;;;7.57;;
25213;SDS011;13160;51.834;4.706;2022-10-14T17:44:49;13.70;;;9.52;;
25213;SDS011;13160;51.834;4.706;2022-10-14T17:47:58;13.75;;;9.25;;
25213;SDS011;13160;51.834;4.706;2022-10-14T17:54:25;13.95;;;10.63;;
25213;SDS011;13160;51.834;4.706;2022-10-14T17:57:13;16.33;;;12.65;;
25213;SDS011;13160;51.834;4.706;2022-10-14T18:00:24;15.00;;;11.27;;
25213;SDS011;13160;51.834;4.706;2022-10-14T18:07:20;17.60;;;13.23;;
25213;SDS011;13160;51.834;4.706;2022-10-14T18:10:33;17.20;;;14.30;;
25213;SDS011;13160;51.834;4.706;2022-10-14T18:13:38;22.08;;;17.42;;
25213;SDS011;13160;51.834;4.706;2022-10-14T18:32:53;21.13;;;16.77;;